Time;durP1;ratioP1;P1;durP2;ratioP2;P2;SDS_P1;SDS_P2;PMS_P1;PMS_P2;Temp;Humidity;BMP_temperature;BMP_pressure;BME280_temperature;BME280_humidity;BME280_pressure;Samples;Min_cycle;Max_cycle;Signal;HPM_P1;HPM_P2
2022/06/03 00:01:28;;;;;;;;;;;;;;;;;;6271094;22;25067;-89
2022/06/03 00:03:54;;;;;;;;;;;;;;;;;;6269945;22;20353;-90
2022/06/03 00:06:20;;;;;;;;;;;;;;;;;;6241930;22;20356;-89
2022/06/03 00:08:46;;;;;;;;;;;;;;;;;;6269697;22;20354;-89
2022/06/03 00:11:12;;;;;;;;;;;;;;;;;;6269677;22;20353;-89
2022/06/03 00:13:38;;;;;;;;;;;;;;;;;;6269138;22;20358;-90
2022/06/03 00:16:04;;;;;;;;;;;;;;;;;;6269769;22;25121;-89
2022/06/03 00:18:30;;;;;;;;;;;;;;;;;;6243849;22;20426;-89
2022/06/03 00:20:56;;;;;;;;;;;;;;;;;;6270373;22;25133;-89
2022/06/03 00:23:22;;;;;;;;;;;;;;;;;;6269393;22;20377;-89
2022/06/03 00:25:48;;;;;;;;;;;;;;;;;;6269507;22;20372;-89
2022/06/03 00:28:13;;;;;;;;;;;;;;;;;;6269909;22;20332;-90
2022/06/03 00:30:39;;;;;;;;;;;;;;;;;;6242749;22;20334;-89
2022/06/03 00:33:05;;;;;;;;;;;;;;;;;;6269783;22;20852;-89
2022/06/03 00:35:31;;;;;;;;;;;;;;;;;;6269858;22;20382;-89
2022/06/03 00:37:57;;;;;;;;;;;;;;;;;;6270685;22;20433;-90
2022/06/03 00:40:23;;;;;;;;;;;;;;;;;;6269415;22;25088;-89
2022/06/03 00:42:49;;;;;;;;;;;;;;;;;;6242067;22;20329;-90
2022/06/03 00:45:15;;;;;;;;;;;;;;;;;;6242216;22;20357;-89
2022/06/03 00:47:41;;;;;;;;;;;;;;;;;;6270106;22;20741;-89
2022/06/03 00:50:07;;;;;;;;;;;;;;;;;;6242578;22;25065;-89
2022/06/03 00:52:32;;;;;;;;;;;;;;;;;;6243063;22;20345;-89
2022/06/03 00:54:58;;;;;;;;;;;;;;;;;;6242496;22;20837;-89
2022/06/03 00:57:24;;;;;;;;;;;;;;;;;;6242598;22;20710;-90
2022/06/03 00:59:50;;;;;;;;;;;;;;;;;;6270621;22;20417;-89
2022/06/03 01:02:16;;;;;;;;;;;;;;;;;;6294933;22;20500;-88
2022/06/03 01:04:42;;;;;;;;;;;;;;;;;;6294796;22;20395;-89
2022/06/03 01:07:08;;;;;;;;;;;;;;;;;;6297573;22;20391;-88
2022/06/03 01:09:34;;;;;;;;;;;;;;;;;;6246111;22;20346;-90
2022/06/03 01:12:00;;;;;;;;;;;;;;;;;;6245599;22;24064;-88
2022/06/03 01:14:26;;;;;;;;;;;;;;;;;;6270536;22;20422;-89
2022/06/03 01:16:52;;;;;;;;;;;;;;;;;;6270236;22;20740;-88
2022/06/03 01:19:18;;;;;;;;;;;;;;;;;;6269729;22;20519;-90
2022/06/03 01:21:44;;;;;;;;;;;;;;;;;;6269589;22;25072;-89
2022/06/03 01:24:10;;;;;;;;;;;;;;;;;;6269123;22;20337;-89
2022/06/03 01:26:36;;;;;;;;;;;;;;;;;;6242530;22;20329;-89
2022/06/03 01:29:02;;;;;;;;;;;;;;;;;;6243442;22;20356;-90
2022/06/03 01:31:28;;;;;;;;;;;;;;;;;;6242086;22;20822;-89
2022/06/03 01:33:53;;;;;;;;;;;;;;;;;;6269359;22;20766;-89
2022/06/03 01:36:19;;;;;;;;;;;;;;;;;;6271503;22;20180;-88
2022/06/03 01:38:45;;;;;;;;;;;;;;;;;;6269247;22;20426;-87
2022/06/03 01:41:11;;;;;;;;;;;;;;;;;;6269657;22;20357;-89
2022/06/03 01:43:37;;;;;;;;;;;;;;;;;;6269491;22;20339;-90
2022/06/03 01:46:03;;;;;;;;;;;;;;;;;;6243635;22;20383;-90
2022/06/03 01:48:30;;;;;;;;;;;;;;;;;;6242091;22;20435;-89
2022/06/03 01:50:56;;;;;;;;;;;;;;;;;;6268977;22;25070;-90
2022/06/03 01:53:21;;;;;;;;;;;;;;;;;;6269021;22;20357;-89
2022/06/03 01:55:47;;;;;;;;;;;;;;;;;;6268936;22;20705;-89
2022/06/03 01:58:13;;;;;;;;;;;;;;;;;;6242316;22;20855;-89
2022/06/03 02:00:39;;;;;;;;;;;;;;;;;;6241738;22;20350;-89
2022/06/03 02:03:05;;;;;;;;;;;;;;;;;;6243247;22;20353;-89
2022/06/03 02:05:31;;;;;;;;;;;;;;;;;;6269362;22;25147;-90
2022/06/03 02:07:57;;;;;;;;;;;;;;;;;;6269003;22;20434;-90
2022/06/03 02:10:23;;;;;;;;;;;;;;;;;;6242505;22;20452;-89
2022/06/03 02:12:49;;;;;;;;;;;;;;;;;;6244486;22;20132;-89
2022/06/03 02:15:15;;;;;;;;;;;;;;;;;;6242548;22;25142;-89
2022/06/03 02:17:41;;;;;;;;;;;;;;;;;;6269152;22;25136;-88
2022/06/03 02:20:07;;;;;;;;;;;;;;;;;;6269224;22;20322;-90
2022/06/03 02:22:33;;;;;;;;;;;;;;;;;;6269681;22;33117;-90
2022/06/03 02:24:59;;;;;;;;;;;;;;;;;;6270704;22;20421;-89
2022/06/03 02:27:25;;;;;;;;;;;;;;;;;;6244291;22;20389;-88
2022/06/03 02:32:35;;;;;;;;;;;;;;;;;;6272080;22;20345;-90
2022/06/03 02:35:01;;;;;;;;;;;;;;;;;;6271452;22;20340;-90
2022/06/03 02:37:27;;;;;;;;;;;;;;;;;;6244576;22;20717;-89
2022/06/03 02:39:53;;;;;;;;;;;;;;;;;;6271739;22;20344;-91
2022/06/03 02:42:19;;;;;;;;;;;;;;;;;;6243105;22;20326;-91
2022/06/03 02:44:45;;;;;;;;;;;;;;;;;;6243547;22;20384;-91
2022/06/03 02:47:11;;;;;;;;;;;;;;;;;;6271046;22;20800;-89
2022/06/03 02:49:37;;;;;;;;;;;;;;;;;;6271603;22;20407;-89
2022/06/03 02:52:03;;;;;;;;;;;;;;;;;;6271334;22;20329;-89
2022/06/03 02:54:29;;;;;;;;;;;;;;;;;;6244473;22;20888;-90
2022/06/03 02:56:55;;;;;;;;;;;;;;;;;;6270478;22;20373;-89
2022/06/03 02:59:20;;;;;;;;;;;;;;;;;;6243007;22;20399;-89
2022/06/03 03:01:46;;;;;;;;;;;;;;;;;;6270550;22;20331;-90
2022/06/03 03:04:12;;;;;;;;;;;;;;;;;;6271147;22;25074;-91
2022/06/03 03:06:40;;;;;;;;;;;;;;;;;;6272379;22;20729;-91
2022/06/03 03:09:06;;;;;;;;;;;;;;;;;;6245125;22;20332;-92
2022/06/03 03:11:32;;;;;;;;;;;;;;;;;;6244198;22;20368;-92
2022/06/03 03:13:58;;;;;;;;;;;;;;;;;;6243948;22;25040;-92
2022/06/03 03:16:24;;;;;;;;;;;;;;;;;;6243946;22;20400;-93
2022/06/03 03:18:50;;;;;;;;;;;;;;;;;;6270917;22;20373;-92
2022/06/03 03:21:16;;;;;;;;;;;;;;;;;;6244308;22;20381;-91
2022/06/03 03:23:42;;;;;;;;;;;;;;;;;;6244691;22;20351;-91
2022/06/03 03:26:08;;;;;;;;;;;;;;;;;;6245526;22;20740;-91
2022/06/03 03:28:34;;;;;;;;;;;;;;;;;;6271293;22;20393;-92
2022/06/03 03:31:00;;;;;;;;;;;;;;;;;;6271292;22;20794;-91
2022/06/03 03:33:26;;;;;;;;;;;;;;;;;;6243791;22;25084;-90
2022/06/03 03:35:52;;;;;;;;;;;;;;;;;;6271057;22;25068;-90
2022/06/03 03:38:29;;;;;;;;;;;;;;;;;;6244381;22;20364;-92
2022/06/03 03:40:55;;;;;;;;;;;;;;;;;;6251837;22;20396;-90
2022/06/03 03:43:21;;;;;;;;;;;;;;;;;;6271849;22;20435;-90
2022/06/03 03:45:47;;;;;;;;;;;;;;;;;;6289484;22;20451;-92
2022/06/03 03:48:13;;;;;;;;;;;;;;;;;;6249275;22;20331;-90
2022/06/03 03:50:39;;;;;;;;;;;;;;;;;;6272962;22;25082;-89
2022/06/03 03:53:06;;;;;;;;;;;;;;;;;;6270958;22;20837;-90
2022/06/03 03:55:32;;;;;;;;;;;;;;;;;;6243047;22;20357;-90
2022/06/03 03:57:58;;;;;;;;;;;;;;;;;;6243199;22;20409;-91
2022/06/03 04:00:24;;;;;;;;;;;;;;;;;;6243980;22;20484;-90
2022/06/03 04:02:50;;;;;;;;;;;;;;;;;;6246150;22;19929;-89
2022/06/03 04:05:16;;;;;;;;;;;;;;;;;;6243816;22;20322;-88
2022/06/03 04:07:42;;;;;;;;;;;;;;;;;;6244973;22;20356;-90
2022/06/03 04:10:08;;;;;;;;;;;;;;;;;;6244636;22;20476;-92
2022/06/03 04:12:34;;;;;;;;;;;;;;;;;;6244395;22;20448;-89
2022/06/03 04:15:00;;;;;;;;;;;;;;;;;;6270541;22;20325;-89
2022/06/03 04:17:27;;;;;;;;;;;;;;;;;;6243669;22;20348;-89
2022/06/03 04:19:53;;;;;;;;;;;;;;;;;;6245478;22;20048;-89
2022/06/03 04:22:19;;;;;;;;;;;;;;;;;;6270768;22;20904;-90
2022/06/03 04:24:45;;;;;;;;;;;;;;;;;;6243886;22;20333;-89
2022/06/03 04:27:10;;;;;;;;;;;;;;;;;;6244120;22;25066;-90
2022/06/03 04:29:39;;;;;;;;;;;;;;;;;;6242030;22;25099;-89
2022/06/03 04:32:05;;;;;;;;;;;;;;;;;;6242582;22;25104;-88
2022/06/03 04:34:30;;;;;;;;;;;;;;;;;;6269584;22;25107;-88
2022/06/03 04:36:56;;;;;;;;;;;;;;;;;;6269103;22;20329;-88
2022/06/03 04:39:22;;;;;;;;;;;;;;;;;;6268834;22;20371;-89
2022/06/03 04:41:48;;;;;;;;;;;;;;;;;;6236083;22;20769;-88
2022/06/03 04:44:17;;;;;;;;;;;;;;;;;;6267326;22;25073;-88
2022/06/03 04:46:43;;;;;;;;;;;;;;;;;;6268691;22;20338;-89
2022/06/03 04:49:10;;;;;;;;;;;;;;;;;;6268399;22;20737;-90
2022/06/03 04:51:36;;;;;;;;;;;;;;;;;;6239703;22;20432;-89
2022/06/03 04:54:02;;;;;;;;;;;;;;;;;;6240208;22;25092;-89
2022/06/03 04:56:28;;;;;;;;;;;;;;;;;;6242247;22;20761;-90
2022/06/03 04:58:54;;;;;;;;;;;;;;;;;;6268643;22;25078;-90
2022/06/03 05:01:20;;;;;;;;;;;;;;;;;;6242624;22;20343;-89
2022/06/03 05:03:46;;;;;;;;;;;;;;;;;;6243241;22;20377;-89
2022/06/03 05:06:11;;;;;;;;;;;;;;;;;;6270931;22;20327;-92
2022/06/03 05:08:48;;;;;;;;;;;;;;;;;;6242488;22;20393;-91
2022/06/03 05:11:19;;;;;;;;;;;;;;;;;;6270282;22;25074;-91
2022/06/03 05:13:48;;;;;;;;;;;;;;;;;;6239606;22;20373;-92
2022/06/03 05:16:18;;;;;;;;;;;;;;;;;;6271025;22;20696;-92
2022/06/03 05:18:44;;;;;;;;;;;;;;;;;;6270063;22;20386;-89
2022/06/03 05:24:12;;;;;;;;;;;;;;;;;;;;;
2022/06/03 05:32:14;;;;;;;;;;;;;;;;;;6089817;23;25524;-91
2022/06/03 05:34:45;;;;;;;;;;;;;;;;;;6088574;23;20336;-91
2022/06/03 05:42:55;;;;;;;;;;;;;;;;;;6067639;23;20370;-89
2022/06/03 05:45:21;;;;;;;;;;;;;;;;;;6095148;23;20367;-88
2022/06/03 05:47:47;;;;;;;;;;;;;;;;;;6146400;23;20410;-89
2022/06/03 05:50:13;;;;;;;;;;;;;;;;;;6156840;22;20484;-89
2022/06/03 05:52:41;;;;;;;;;;;;;;;;;;6270040;22;20403;-93
2022/06/03 05:55:08;;;;;;;;;;;;;;;;;;6269188;22;20646;-91
2022/06/03 05:57:33;;;;;;;;;;;;;;;;;;6243626;22;20368;-90
2022/06/03 05:59:59;;;;;;;;;;;;;;;;;;6246963;22;19907;-90
2022/06/03 06:02:25;;;;;;;;;;;;;;;;;;6245685;22;20665;-91
2022/06/03 06:04:51;;;;;;;;;;;;;;;;;;6272393;22;20356;-90
2022/06/03 06:07:17;;;;;;;;;;;;;;;;;;6246286;22;20409;-90
2022/06/03 06:09:43;;;;;;;;;;;;;;;;;;6273108;22;20434;-91
2022/06/03 06:12:09;;;;;;;;;;;;;;;;;;6244314;22;20721;-91
2022/06/03 06:14:35;;;;;;;;;;;;;;;;;;6245748;22;20801;-92
2022/06/03 06:17:01;;;;;;;;;;;;;;;;;;6282914;22;20394;-91
2022/06/03 06:19:27;;;;;;;;;;;;;;;;;;6300847;22;20365;-89
2022/06/03 06:21:53;;;;;;;;;;;;;;;;;;6272528;22;20819;-91
2022/06/03 06:24:19;;;;;;;;;;;;;;;;;;6244167;22;20351;-90
2022/06/03 06:26:48;;;;;;;;;;;;;;;;;;6276429;22;20381;-91
2022/06/03 06:29:14;;;;;;;;;;;;;;;;;;6246345;22;20348;-91
2022/06/03 06:31:40;;;;;;;;;;;;;;;;;;6244476;22;25067;-91
2022/06/03 06:34:06;;;;;;;;;;;;;;;;;;6243926;22;25081;-91
2022/06/03 06:36:32;;;;;;;;;;;;;;;;;;6244677;22;25074;-91
2022/06/03 06:38:57;;;;;;;;;;;;;;;;;;6271672;22;20366;-92
2022/06/03 06:41:23;;;;;;;;;;;;;;;;;;6271439;22;20400;-92
2022/06/03 06:43:49;;;;;;;;;;;;;;;;;;6271878;22;20360;-90
2022/06/03 06:46:15;;;;;;;;;;;;;;;;;;6245527;22;25091;-91
2022/06/03 06:48:41;;;;;;;;;;;;;;;;;;6271413;22;20876;-90
2022/06/03 06:51:07;;;;;;;;;;;;;;;;;;6243998;22;20725;-92
2022/06/03 06:53:33;;;;;;;;;;;;;;;;;;6243631;22;20367;-90
2022/06/03 06:55:59;;;;;;;;;;;;;;;;;;6271571;22;20333;-89
2022/06/03 06:58:25;;;;;;;;;;;;;;;;;;6271384;22;20434;-89
2022/06/03 07:00:51;;;;;;;;;;;;;;;;;;6271136;22;20808;-89
2022/06/03 07:03:17;;;;;;;;;;;;;;;;;;6273986;22;24073;-90
2022/06/03 07:05:43;;;;;;;;;;;;;;;;;;6243984;22;25132;-89
2022/06/03 07:08:09;;;;;;;;;;;;;;;;;;6271665;22;20361;-89
2022/06/03 07:10:34;;;;;;;;;;;;;;;;;;6270681;22;20341;-89
2022/06/03 07:13:01;;;;;;;;;;;;;;;;;;6271056;22;25067;-91
2022/06/03 07:15:27;;;;;;;;;;;;;;;;;;6244096;22;20684;-90
2022/06/03 07:20:38;;;;;;;;;;;;;;;;;;6271086;22;20373;-90
2022/06/03 07:23:04;;;;;;;;;;;;;;;;;;6270923;22;20689;-90
2022/06/03 07:25:30;;;;;;;;;;;;;;;;;;6244493;22;25070;-89
2022/06/03 07:27:56;;;;;;;;;;;;;;;;;;6271446;22;20799;-90
2022/06/03 07:30:22;;;;;;;;;;;;;;;;;;6244376;22;20391;-89
2022/06/03 07:32:48;;;;;;;;;;;;;;;;;;6245222;22;20337;-89
2022/06/03 07:35:14;;;;;;;;;;;;;;;;;;6271218;22;20419;-90
2022/06/03 07:37:40;;;;;;;;;;;;;;;;;;6244128;22;20788;-89
2022/06/03 07:40:06;;;;;;;;;;;;;;;;;;6271286;22;20337;-90
2022/06/03 07:42:32;;;;;;;;;;;;;;;;;;6242773;22;20348;-89
2022/06/03 07:44:58;;;;;;;;;;;;;;;;;;6243089;22;25054;-89
2022/06/03 07:47:24;;;;;;;;;;;;;;;;;;6270143;22;20338;-89
2022/06/03 07:49:50;;;;;;;;;;;;;;;;;;6271489;22;20761;-90
2022/06/03 07:52:16;;;;;;;;;;;;;;;;;;6270618;22;20710;-90
2022/06/03 07:54:42;;;;;;;;;;;;;;;;;;6270166;22;20567;-89
2022/06/03 07:57:08;;;;;;;;;;;;;;;;;;6245405;22;19973;-90
2022/06/03 07:59:33;;;;;;;;;;;;;;;;;;6270407;22;20380;-90
2022/06/03 08:01:59;;;;;;;;;;;;;;;;;;6243036;22;25071;-91
2022/06/03 08:04:25;;;;;;;;;;;;;;;;;;6270420;22;25085;-89
2022/06/03 08:12:20;;;;;;;;;;;;;;;;;;6271196;22;20480;-90
2022/06/03 08:14:46;;;;;;;;;;;;;;;;;;6243329;22;20394;-91
2022/06/03 08:17:12;;;;;;;;;;;;;;;;;;6270507;22;20452;-90
2022/06/03 08:19:38;;;;;;;;;;;;;;;;;;6269982;22;25106;-90
2022/06/03 08:22:04;;;;;;;;;;;;;;;;;;6270301;22;20361;-92
2022/06/03 08:24:30;;;;;;;;;;;;;;;;;;6271124;22;20332;-91
2022/06/03 08:26:56;;;;;;;;;;;;;;;;;;6244052;22;20520;-90
2022/06/03 08:29:22;;;;;;;;;;;;;;;;;;6244130;22;25079;-92
2022/06/03 08:31:48;;;;;;;;;;;;;;;;;;6243106;22;20351;-90
2022/06/03 08:34:14;;;;;;;;;;;;;;;;;;6243359;22;20410;-90
2022/06/03 08:36:49;;;;;;;;;;;;;;;;;;6243767;22;20432;-94
2022/06/03 08:39:15;;;;;;;;;;;;;;;;;;6245627;22;25103;-92
2022/06/03 08:41:41;;;;;;;;;;;;;;;;;;6243921;22;25070;-90
2022/06/03 08:44:07;;;;;;;;;;;;;;;;;;6243205;22;20435;-90
2022/06/03 08:46:33;;;;;;;;;;;;;;;;;;6270906;22;25084;-91
2022/06/03 08:48:59;;;;;;;;;;;;;;;;;;6244333;22;20359;-91
2022/06/03 08:51:25;;;;;;;;;;;;;;;;;;6244467;22;20369;-91
2022/06/03 08:53:51;;;;;;;;;;;;;;;;;;6245043;22;25070;-91
2022/06/03 08:56:19;;;;;;;;;;;;;;;;;;6266435;22;20329;-90
2022/06/03 08:58:45;;;;;;;;;;;;;;;;;;6293678;22;20407;-91
2022/06/03 09:01:11;;;;;;;;;;;;;;;;;;6262632;22;20333;-90
2022/06/03 09:03:37;;;;;;;;;;;;;;;;;;6275247;22;20801;-91
2022/06/03 09:06:06;;;;;;;;;;;;;;;;;;6270475;22;20422;-91
2022/06/03 09:08:32;;;;;;;;;;;;;;;;;;6269218;22;20335;-91
2022/06/03 09:10:58;;;;;;;;;;;;;;;;;;6243419;22;20784;-92
2022/06/03 09:13:25;;;;;;;;;;;;;;;;;;6245498;22;20581;-92
2022/06/03 09:15:51;;;;;;;;;;;;;;;;;;6243908;22;20761;-92
2022/06/03 09:18:17;;;;;;;;;;;;;;;;;;6270786;22;20613;-91
2022/06/03 09:20:44;;;;;;;;;;;;;;;;;;6270543;22;20332;-91
2022/06/03 09:23:10;;;;;;;;;;;;;;;;;;6243250;22;20347;-90
2022/06/03 09:25:36;;;;;;;;;;;;;;;;;;6270468;22;20434;-91
2022/06/03 09:28:02;;;;;;;;;;;;;;;;;;6243757;22;20452;-91
2022/06/03 09:30:28;;;;;;;;;;;;;;;;;;6270771;22;20330;-91
2022/06/03 09:32:54;;;;;;;;;;;;;;;;;;6243442;22;20373;-93
2022/06/03 09:35:20;;;;;;;;;;;;;;;;;;6269696;22;20811;-91
2022/06/03 09:37:46;;;;;;;;;;;;;;;;;;6270146;22;25071;-90
2022/06/03 09:40:12;;;;;;;;;;;;;;;;;;6269894;22;20339;-91
2022/06/03 09:42:38;;;;;;;;;;;;;;;;;;6270355;22;20326;-91
2022/06/03 09:45:04;;;;;;;;;;;;;;;;;;6243748;22;20831;-90
2022/06/03 09:47:30;;;;;;;;;;;;;;;;;;6243108;22;20421;-92
2022/06/03 09:49:56;;;;;;;;;;;;;;;;;;6243052;22;20392;-91
2022/06/03 09:52:22;;;;;;;;;;;;;;;;;;6243077;22;20342;-91
2022/06/03 09:54:48;;;;;;;;;;;;;;;;;;6269830;22;20415;-91
2022/06/03 09:57:14;;;;;;;;;;;;;;;;;;6243463;22;20343;-91
2022/06/03 09:59:40;;;;;;;;;;;;;;;;;;6242682;22;20512;-91
2022/06/03 10:02:06;;;;;;;;;;;;;;;;;;6242769;22;25116;-91
2022/06/03 10:04:39;;;;;;;;;;;;;;;;;;6270782;22;20667;-93
2022/06/03 10:07:08;;;;;;;;;;;;;;;;;;6245476;22;24055;-93
2022/06/03 10:17:48;;;;;;;;;;;;;;;;;;6270845;22;20383;-93
2022/06/03 10:20:16;;;;;;;;;;;;;;;;;;6271079;22;25076;-92
2022/06/03 10:22:42;;;;;;;;;;;;;;;;;;6243826;22;20358;-92
2022/06/03 10:25:08;;;;;;;;;;;;;;;;;;6242148;22;20341;-91
2022/06/03 10:27:34;;;;;;;;;;;;;;;;;;6244646;22;24083;-91
2022/06/03 10:30:00;;;;;;;;;;;;;;;;;;6270437;22;20329;-92
2022/06/03 10:32:26;;;;;;;;;;;;;;;;;;6271011;22;20341;-91
2022/06/03 10:34:52;;;;;;;;;;;;;;;;;;6243948;22;20577;-93
2022/06/03 10:37:20;;;;;;;;;;;;;;;;;;6243803;22;20341;-92
2022/06/03 10:39:46;;;;;;;;;;;;;;;;;;6242420;22;25149;-91
2022/06/03 10:42:15;;;;;;;;;;;;;;;;;;6269649;22;25079;-93
2022/06/03 11:03:59;;;;;;;;;;;;;;;;;;6178718;23;20816;-91
2022/06/03 11:09:34;;;;;;;;;;;;;;;;;;6178939;23;20326;-93
2022/06/03 11:14:45;;;;;;;;;;;;;;;;;;6195750;23;20825;-92
2022/06/03 11:17:14;;;;;;;;;;;;;;;;;;6214940;23;20374;-91
2022/06/03 11:19:40;;;;;;;;;;;;;;;;;;6240217;23;20392;-91
2022/06/03 11:22:07;;;;;;;;;;;;;;;;;;6240306;23;25126;-91
2022/06/03 11:24:33;;;;;;;;;;;;;;;;;;6215266;23;20369;-91
2022/06/03 11:26:59;;;;;;;;;;;;;;;;;;6240500;23;20326;-92
2022/06/03 11:29:25;;;;;;;;;;;;;;;;;;6213547;23;25119;-92
2022/06/03 11:31:51;;;;;;;;;;;;;;;;;;6215602;23;20412;-92
2022/06/03 11:34:17;;;;;;;;;;;;;;;;;;6225895;23;20406;-92
2022/06/03 11:36:43;;;;;;;;;;;;;;;;;;6242175;22;20362;-89
2022/06/03 11:39:08;;;;;;;;;;;;;;;;;;6248640;23;20437;-90
2022/06/03 11:41:34;;;;;;;;;;;;;;;;;;6242897;23;20360;-90
2022/06/03 11:44:01;;;;;;;;;;;;;;;;;;6243153;23;20343;-92
2022/06/03 11:46:27;;;;;;;;;;;;;;;;;;6213818;23;20345;-90
2022/06/03 11:48:57;;;;;;;;;;;;;;;;;;6240455;23;20354;-91
2022/06/03 11:51:23;;;;;;;;;;;;;;;;;;6212911;23;25062;-91
2022/06/03 11:53:49;;;;;;;;;;;;;;;;;;6214168;23;20340;-92
2022/06/03 11:56:15;;;;;;;;;;;;;;;;;;6215384;23;24087;-90
2022/06/03 11:58:41;;;;;;;;;;;;;;;;;;6240319;23;20407;-91
2022/06/03 12:01:07;;;;;;;;;;;;;;;;;;6212792;23;20380;-91
2022/06/03 12:03:33;;;;;;;;;;;;;;;;;;6241069;23;20370;-91
2022/06/03 12:05:59;;;;;;;;;;;;;;;;;;6215277;23;19899;-90
2022/06/03 12:08:26;;;;;;;;;;;;;;;;;;6214770;23;19974;-91
2022/06/03 12:10:52;;;;;;;;;;;;;;;;;;6213255;23;20443;-92
2022/06/03 12:13:18;;;;;;;;;;;;;;;;;;6229295;23;20403;-91
2022/06/03 12:15:44;;;;;;;;;;;;;;;;;;6238518;23;25094;-91
2022/06/03 12:18:10;;;;;;;;;;;;;;;;;;6240356;22;20377;-91
2022/06/03 12:20:39;;;;;;;;;;;;;;;;;;6242087;22;20337;-91
2022/06/03 12:23:07;;;;;;;;;;;;;;;;;;6241519;22;20340;-92
2022/06/03 12:25:33;;;;;;;;;;;;;;;;;;6241546;22;20372;-91
2022/06/03 12:28:00;;;;;;;;;;;;;;;;;;6237995;23;20432;-91
2022/06/03 12:30:28;;;;;;;;;;;;;;;;;;6240517;22;20349;-92
2022/06/03 12:33:15;;;;;;;;;;;;;;;;;;6239072;23;25075;-92
2022/06/03 12:38:37;;;;;;;;;;;;;;;;;;;;;
2022/06/03 12:41:08;;;;;;;;;;;;;;;;;;6240684;23;20886;-92
2022/06/03 12:43:43;;;;;;;;;;;;;;;;;;6240268;23;20352;-92
2022/06/03 12:46:15;;;;;;;;;;;;;;;;;;6238842;23;20341;-92
2022/06/03 12:54:24;;;;;;;;;;;;;;;;;;;;;
2022/06/03 12:57:00;;;;;;;;;;;;;;;;;;6177767;23;20445;-92
2022/06/03 12:59:29;;;;;;;;;;;;;;;;;;6151747;23;25067;-92
2022/06/03 13:02:11;;;;;;;;;;;;;;;;;;6152131;23;20338;-92
2022/06/03 13:04:40;;;;;;;;;;;;;;;;;;6177716;23;20358;-93
2022/06/03 13:07:14;;;;;;;;;;;;;;;;;;6152975;23;20360;-92
2022/06/03 13:09:40;;;;;;;;;;;;;;;;;;6177483;23;20352;-92
2022/06/03 13:12:16;;;;;;;;;;;;;;;;;;;;;
2022/06/03 13:17:36;;;;;;;;;;;;;;;;;;6162979;23;20451;-92
2022/06/03 13:22:58;;;;;;;;;;;;;;;;;;;;;
2022/06/03 13:25:27;;;;;;;;;;;;;;;;;;6240421;23;20439;-92
2022/06/03 13:27:53;;;;;;;;;;;;;;;;;;6240285;23;20011;-91
2022/06/03 13:30:19;;;;;;;;;;;;;;;;;;6241148;22;20261;-90
2022/06/03 13:33:02;;;;;;;;;;;;;;;;;;6238036;23;20452;-93
2022/06/03 13:35:46;;;;;;;;;;;;;;;;;;6237892;23;20374;-91
2022/06/03 13:38:30;;;;;;;;;;;;;;;;;;6238380;23;20372;-92
2022/06/03 13:43:43;;;;;;;;;;;;;;;;;;6240390;23;20349;-92
2022/06/03 13:46:14;;;;;;;;;;;;;;;;;;6240162;22;20347;-93
2022/06/03 13:48:51;;;;;;;;;;;;;;;;;;;;;
2022/06/03 13:51:17;;;;;;;;;;;;;;;;;;6239000;23;20421;-92
2022/06/03 13:53:53;;;;;;;;;;;;;;;;;;;;;
2022/06/03 13:56:19;;;;;;;;;;;;;;;;;;6238918;23;20421;-91
2022/06/03 13:58:45;;;;;;;;;;;;;;;;;;6238824;23;24086;-92
2022/06/03 14:01:11;;;;;;;;;;;;;;;;;;6240336;22;20386;-91
2022/06/03 14:03:58;;;;;;;;;;;;;;;;;;6238505;23;20675;-92
2022/06/03 14:06:23;;;;;;;;;;;;;;;;;;6240923;23;20357;-90
2022/06/03 14:08:50;;;;;;;;;;;;;;;;;;6261838;22;20348;-89
2022/06/03 14:11:16;;;;;;;;;;;;;;;;;;6261943;22;24043;-88
2022/06/03 14:13:42;;;;;;;;;;;;;;;;;;6272860;22;20336;-87
2022/06/03 14:16:08;;;;;;;;;;;;;;;;;;6268845;22;25097;-91
2022/06/03 14:18:34;;;;;;;;;;;;;;;;;;6271033;22;20032;-89
2022/06/03 14:21:00;;;;;;;;;;;;;;;;;;6270460;22;20352;-89
2022/06/03 14:23:26;;;;;;;;;;;;;;;;;;6272114;22;19899;-88
2022/06/03 14:25:52;;;;;;;;;;;;;;;;;;6243209;22;20728;-88
2022/06/03 14:28:18;;;;;;;;;;;;;;;;;;6270679;22;20942;-88
2022/06/03 14:30:45;;;;;;;;;;;;;;;;;;6272333;22;24037;-88
2022/06/03 14:33:11;;;;;;;;;;;;;;;;;;6272852;22;19899;-87
2022/06/03 14:35:38;;;;;;;;;;;;;;;;;;6271342;22;20192;-87
2022/06/03 14:38:04;;;;;;;;;;;;;;;;;;6270065;22;20659;-87
2022/06/03 14:40:30;;;;;;;;;;;;;;;;;;6269786;22;25068;-88
2022/06/03 14:42:56;;;;;;;;;;;;;;;;;;6272480;22;19970;-88
2022/06/03 14:45:22;;;;;;;;;;;;;;;;;;6270885;22;20365;-88
2022/06/03 14:47:49;;;;;;;;;;;;;;;;;;6244528;22;19984;-87
2022/06/03 14:50:15;;;;;;;;;;;;;;;;;;6270700;22;20346;-86
2022/06/03 14:52:41;;;;;;;;;;;;;;;;;;6270682;22;20687;-87
2022/06/03 14:55:07;;;;;;;;;;;;;;;;;;6272051;22;19969;-87
2022/06/03 14:57:33;;;;;;;;;;;;;;;;;;6269153;22;20328;-88
2022/06/03 14:59:59;;;;;;;;;;;;;;;;;;6272108;22;20022;-92
2022/06/03 15:02:25;;;;;;;;;;;;;;;;;;6269337;22;25075;-87
2022/06/03 15:04:51;;;;;;;;;;;;;;;;;;6271221;22;24081;-91
2022/06/03 15:07:19;;;;;;;;;;;;;;;;;;6271089;22;20758;-91
2022/06/03 15:09:45;;;;;;;;;;;;;;;;;;6245468;22;19903;-89
2022/06/03 15:12:11;;;;;;;;;;;;;;;;;;6271483;22;25074;-92
2022/06/03 15:14:37;;;;;;;;;;;;;;;;;;6242771;22;25098;-91
2022/06/03 15:17:10;;;;;;;;;;;;;;;;;;6242798;22;20338;-93
2022/06/03 15:19:36;;;;;;;;;;;;;;;;;;6272335;22;20035;-96
2022/06/03 15:22:02;;;;;;;;;;;;;;;;;;6243329;22;20725;-93
2022/06/03 15:24:28;;;;;;;;;;;;;;;;;;6272388;22;20436;-89
2022/06/03 15:26:56;;;;;;;;;;;;;;;;;;6269309;22;20397;-92
2022/06/03 15:29:22;;;;;;;;;;;;;;;;;;6271247;22;19903;-94
2022/06/03 15:31:48;;;;;;;;;;;;;;;;;;6268604;22;20883;-88
2022/06/03 15:34:14;;;;;;;;;;;;;;;;;;6272452;22;20239;-88
2022/06/03 15:36:48;;;;;;;;;;;;;;;;;;6241833;22;20355;-88
2022/06/03 15:39:14;;;;;;;;;;;;;;;;;;6245547;22;20029;-88
2022/06/03 15:41:40;;;;;;;;;;;;;;;;;;6269109;22;20382;-94
2022/06/03 15:44:06;;;;;;;;;;;;;;;;;;6271775;22;20540;-89
2022/06/03 15:49:31;;;;;;;;;;;;;;;;;;;;;
2022/06/03 15:51:59;;;;;;;;;;;;;;;;;;6272163;22;20912;-92
2022/06/03 15:54:34;;;;;;;;;;;;;;;;;;6277516;22;20671;-93
2022/06/03 15:57:00;;;;;;;;;;;;;;;;;;6257881;22;20346;-94
2022/06/03 15:59:47;;;;;;;;;;;;;;;;;;6278666;22;20327;-89
2022/06/03 16:02:12;;;;;;;;;;;;;;;;;;6270355;22;20809;-92
2022/06/03 16:04:38;;;;;;;;;;;;;;;;;;6245129;22;20318;-92
2022/06/03 16:07:07;;;;;;;;;;;;;;;;;;6267174;22;24043;-91
2022/06/03 16:09:33;;;;;;;;;;;;;;;;;;6268512;22;20414;-89
2022/06/03 16:11:59;;;;;;;;;;;;;;;;;;6243259;22;20201;-89
2022/06/03 16:14:25;;;;;;;;;;;;;;;;;;6269389;22;25071;-89
2022/06/03 16:16:51;;;;;;;;;;;;;;;;;;6269851;22;25172;-92
2022/06/03 16:19:20;;;;;;;;;;;;;;;;;;6243525;22;20243;-92
2022/06/03 16:21:48;;;;;;;;;;;;;;;;;;6242158;22;20467;-92
2022/06/03 16:24:14;;;;;;;;;;;;;;;;;;6242310;22;20354;-91
2022/06/03 16:26:40;;;;;;;;;;;;;;;;;;6241482;22;25056;-90
2022/06/03 16:29:05;;;;;;;;;;;;;;;;;;6242205;22;25069;-89
2022/06/03 16:31:31;;;;;;;;;;;;;;;;;;6238945;22;20816;-92
2022/06/03 16:33:58;;;;;;;;;;;;;;;;;;6237998;22;25060;-88
2022/06/03 16:36:27;;;;;;;;;;;;;;;;;;6268283;22;25078;-93
2022/06/03 16:39:17;;;;;;;;;;;;;;;;;;6208301;23;20403;-95
2022/06/03 16:41:44;;;;;;;;;;;;;;;;;;6195173;23;19910;-91
2022/06/03 16:44:13;;;;;;;;;;;;;;;;;;6210810;23;20346;-94
2022/06/03 16:46:39;;;;;;;;;;;;;;;;;;6207291;23;25059;-90
2022/06/03 16:49:08;;;;;;;;;;;;;;;;;;6180579;23;20359;-92
2022/06/03 16:51:34;;;;;;;;;;;;;;;;;;6204546;23;25073;-92
2022/06/03 16:54:00;;;;;;;;;;;;;;;;;;6181710;23;25042;-88
2022/06/03 16:56:26;;;;;;;;;;;;;;;;;;6180172;23;25089;-90
2022/06/03 16:58:52;;;;;;;;;;;;;;;;;;6180101;23;20376;-89
2022/06/03 17:01:18;;;;;;;;;;;;;;;;;;6205460;23;20684;-90
2022/06/03 17:03:44;;;;;;;;;;;;;;;;;;6180113;23;20357;-92
2022/06/03 17:06:10;;;;;;;;;;;;;;;;;;6181483;23;20390;-95
2022/06/03 17:08:36;;;;;;;;;;;;;;;;;;6205378;23;20748;-92
2022/06/03 17:11:02;;;;;;;;;;;;;;;;;;6258475;22;20353;-88
2022/06/03 17:13:27;;;;;;;;;;;;;;;;;;6268110;22;20387;-94
2022/06/03 17:15:53;;;;;;;;;;;;;;;;;;6268559;22;20343;-91
2022/06/03 17:18:19;;;;;;;;;;;;;;;;;;6270407;22;19918;-92
2022/06/03 17:20:46;;;;;;;;;;;;;;;;;;6270525;22;20725;-91
2022/06/03 17:23:12;;;;;;;;;;;;;;;;;;6269584;22;20363;-89
2022/06/03 17:25:38;;;;;;;;;;;;;;;;;;6241732;22;20337;-89
2022/06/03 17:28:07;;;;;;;;;;;;;;;;;;6271219;22;20666;-91
2022/06/03 17:30:35;;;;;;;;;;;;;;;;;;6270883;22;20787;-95
2022/06/03 17:33:02;;;;;;;;;;;;;;;;;;6269059;22;20342;-92
2022/06/03 17:35:28;;;;;;;;;;;;;;;;;;6246689;22;24051;-91
2022/06/03 17:37:54;;;;;;;;;;;;;;;;;;6268752;22;25080;-92
2022/06/03 17:40:20;;;;;;;;;;;;;;;;;;6270199;22;19961;-90
2022/06/03 17:42:46;;;;;;;;;;;;;;;;;;6270644;22;20332;-93
2022/06/03 17:45:12;;;;;;;;;;;;;;;;;;6268089;22;20671;-92
2022/06/03 17:47:38;;;;;;;;;;;;;;;;;;6267518;22;20345;-93
2022/06/03 17:50:04;;;;;;;;;;;;;;;;;;6269108;22;25081;-91
2022/06/03 17:55:24;;;;;;;;;;;;;;;;;;6273128;22;20274;-90
2022/06/03 17:57:50;;;;;;;;;;;;;;;;;;6269331;22;25132;-90
2022/06/03 18:00:18;;;;;;;;;;;;;;;;;;6270751;22;20353;-89
2022/06/03 18:02:44;;;;;;;;;;;;;;;;;;6270487;22;20340;-90
2022/06/03 18:05:10;;;;;;;;;;;;;;;;;;6269876;22;20913;-90
2022/06/03 18:07:36;;;;;;;;;;;;;;;;;;6272291;22;19906;-88
2022/06/03 18:10:02;;;;;;;;;;;;;;;;;;6243019;22;20344;-91